createdAt,value
2023-03-21T00:00:55.430Z,25.93
2023-03-21T00:03:23.694Z,26.04
2023-03-21T00:05:53.626Z,25.95
2023-03-21T00:08:25.272Z,26.13
2023-03-21T00:10:57.367Z,26.12
2023-03-21T00:13:26.523Z,26.12
2023-03-21T00:16:05.607Z,25.90
2023-03-21T00:18:42.024Z,26.12
2023-03-21T00:21:39.537Z,26.15
2023-03-21T00:24:05.724Z,26.06
2023-03-21T00:26:34.153Z,26.13
2023-03-21T00:29:02.144Z,26.14
2023-03-21T00:31:30.318Z,26.15
2023-03-21T00:33:58.341Z,26.16
2023-03-21T00:36:26.954Z,26.17
2023-03-21T00:38:55.659Z,26.19
2023-03-21T00:41:41.020Z,26.19
2023-03-21T00:44:13.763Z,26.18
2023-03-21T00:46:54.186Z,26.18
2023-03-21T00:49:25.351Z,26.17
2023-03-21T00:51:55.375Z,26.17
2023-03-21T00:54:26.055Z,26.16
2023-03-21T00:56:55.621Z,26.18
2023-03-21T00:59:23.671Z,26.03
2023-03-21T01:01:53.605Z,26.16
2023-03-21T01:04:26.434Z,26.16
2023-03-21T01:06:55.571Z,26.17
2023-03-21T01:09:25.497Z,26.16
2023-03-21T01:11:55.342Z,26.17
2023-03-21T01:14:24.265Z,26.16
2023-03-21T01:16:55.262Z,26.15
2023-03-21T01:19:40.636Z,26.15
2023-03-21T01:22:12.904Z,26.11
2023-03-21T01:24:52.398Z,26.13
2023-03-21T01:27:23.795Z,26.12
2023-03-21T01:29:52.245Z,26.10
2023-03-21T01:32:20.395Z,26.10
2023-03-21T01:34:48.455Z,26.09
2023-03-21T01:37:17.812Z,26.09
2023-03-21T01:39:49.222Z,26.08
2023-03-21T01:42:17.385Z,26.07
2023-03-21T01:44:58.419Z,26.07
2023-03-21T01:47:34.297Z,26.06
2023-03-21T01:50:22.205Z,26.06
2023-03-21T01:53:04.121Z,26.06
2023-03-21T01:55:36.478Z,26.07
2023-03-21T01:58:12.788Z,26.05
2023-03-21T02:01:02.813Z,26.05
2023-03-21T02:03:50.613Z,26.05
2023-03-21T02:06:45.537Z,26.04
2023-03-21T02:09:34.588Z,25.92
2023-03-21T02:12:04.736Z,26.05
2023-03-21T02:14:35.875Z,26.06
2023-03-21T02:17:20.089Z,26.06
2023-03-21T02:20:16.003Z,26.07
2023-03-21T02:23:08.306Z,26.06
2023-03-21T02:26:12.224Z,26.07
2023-03-21T02:28:46.979Z,26.05
2023-03-21T02:31:28.377Z,26.05
2023-03-21T02:34:32.819Z,26.02
2023-03-21T02:37:15.264Z,26.02
2023-03-21T02:40:00.890Z,26.04
2023-03-21T02:42:35.954Z,26.04
2023-03-21T02:45:12.279Z,26.04
2023-03-21T02:47:49.769Z,26.03
2023-03-21T02:50:24.815Z,26.04
2023-03-21T02:52:55.990Z,26.04
2023-03-21T02:55:27.105Z,26.04
2023-03-21T02:58:12.301Z,26.03
2023-03-21T03:00:46.196Z,26.03
2023-03-21T03:03:33.410Z,26.04
2023-03-21T03:06:06.447Z,25.88
2023-03-21T03:08:56.328Z,25.91
2023-03-21T03:11:32.878Z,25.91
2023-03-21T03:14:49.965Z,25.96
2023-03-21T03:17:38.524Z,26.06
2023-03-21T03:20:25.693Z,26.01
2023-03-21T03:23:01.335Z,26.06
2023-03-21T03:25:42.825Z,26.06
2023-03-21T03:28:18.262Z,25.71
2023-03-21T03:31:01.240Z,26.06
2023-03-21T03:33:43.840Z,26.05
2023-03-21T03:36:30.120Z,26.06
2023-03-21T03:39:04.519Z,26.04
2023-03-21T03:42:01.634Z,26.05
2023-03-21T03:44:32.116Z,26.04
2023-03-21T03:47:10.708Z,26.04
2023-03-21T03:49:49.247Z,26.03
2023-03-21T03:52:22.698Z,26.05
2023-03-21T03:54:57.752Z,26.04
2023-03-21T03:57:28.823Z,25.87
2023-03-21T03:59:57.404Z,26.05
2023-03-21T04:02:30.198Z,26.05
2023-03-21T04:04:58.376Z,26.06
2023-03-21T04:07:27.800Z,26.06
2023-03-21T04:09:59.113Z,26.01
2023-03-21T04:12:29.807Z,26.01
2023-03-21T04:15:12.626Z,26.06
2023-03-21T04:17:45.440Z,26.05
2023-03-21T04:20:20.930Z,26.06
2023-03-21T04:22:52.266Z,26.07
2023-03-21T04:25:32.373Z,26.07
2023-03-21T04:28:03.361Z,26.07
2023-03-21T04:30:39.803Z,26.07
2023-03-21T04:33:14.494Z,26.08
2023-03-21T04:35:50.630Z,26.09
2023-03-21T04:38:19.476Z,26.08
2023-03-21T04:40:47.381Z,26.08
2023-03-21T04:43:16.827Z,26.06
2023-03-21T04:45:45.041Z,26.08
2023-03-21T04:48:14.463Z,26.09
2023-03-21T04:50:42.625Z,26.09
2023-03-21T04:53:10.724Z,26.09
2023-03-21T04:55:39.209Z,26.07
2023-03-21T04:58:07.693Z,26.08
2023-03-21T05:00:38.460Z,26.08
2023-03-21T05:03:09.138Z,26.07
2023-03-21T05:05:38.871Z,26.06
2023-03-21T05:08:07.793Z,26.06
2023-03-21T05:10:36.038Z,26.07
2023-03-21T05:13:04.181Z,26.06
2023-03-21T05:15:33.959Z,26.06
2023-03-21T05:18:11.019Z,26.06
2023-03-21T05:20:54.121Z,26.08
2023-03-21T05:23:22.734Z,26.09
2023-03-21T05:25:51.857Z,26.04
2023-03-21T05:28:36.722Z,26.10
2023-03-21T05:31:05.860Z,26.06
2023-03-21T05:33:35.617Z,26.11
2023-03-21T05:36:03.899Z,26.11
2023-03-21T05:38:33.409Z,26.11
2023-03-21T05:41:01.431Z,26.13
2023-03-21T05:43:30.329Z,26.14
2023-03-21T05:45:58.544Z,26.12
2023-03-21T05:48:29.552Z,26.13
2023-03-21T05:51:09.592Z,26.14
2023-03-21T05:53:37.951Z,26.14
2023-03-21T05:56:06.902Z,26.13
2023-03-21T05:58:51.587Z,26.13
2023-03-21T06:01:20.480Z,26.12
2023-03-21T06:03:56.905Z,26.13
2023-03-21T06:06:29.168Z,26.13
2023-03-21T06:09:00.518Z,26.13
2023-03-21T06:11:32.102Z,26.13
2023-03-21T06:14:22.218Z,26.01
2023-03-21T06:17:07.446Z,26.10
2023-03-21T06:19:41.366Z,26.10
2023-03-21T06:22:16.898Z,26.08
2023-03-21T06:24:45.521Z,26.12
2023-03-21T06:27:13.982Z,26.13
2023-03-21T06:29:51.104Z,26.13
2023-03-21T06:32:19.851Z,25.93
2023-03-21T06:34:50.581Z,26.13
2023-03-21T06:37:20.990Z,26.15
2023-03-21T06:39:48.936Z,26.15
2023-03-21T06:42:17.960Z,26.16
2023-03-21T06:44:46.338Z,26.16
2023-03-21T06:47:16.326Z,26.15
2023-03-21T06:49:46.409Z,26.07
2023-03-21T06:52:14.727Z,26.18
2023-03-21T06:54:44.799Z,26.19
2023-03-21T06:57:15.523Z,26.20
2023-03-21T06:59:43.604Z,26.23
2023-03-21T07:02:22.421Z,26.24
2023-03-21T07:05:09.406Z,26.25
2023-03-21T07:07:37.997Z,26.25
2023-03-21T07:10:08.465Z,26.25
2023-03-21T07:12:45.109Z,26.25
2023-03-21T07:15:20.779Z,26.25
2023-03-21T07:17:48.765Z,26.10
2023-03-21T07:20:16.919Z,26.25
2023-03-21T07:22:45.001Z,26.26
2023-03-21T07:25:14.453Z,26.27
2023-03-21T07:27:42.680Z,26.26
2023-03-21T07:30:12.306Z,26.26
2023-03-21T07:32:40.898Z,26.26
2023-03-21T07:35:10.401Z,26.23
2023-03-21T07:37:38.671Z,26.27
2023-03-21T07:40:10.576Z,26.28
2023-03-21T07:42:42.078Z,26.28
2023-03-21T07:45:16.009Z,26.29
2023-03-21T07:47:46.511Z,26.29
2023-03-21T07:50:14.851Z,26.29
2023-03-21T07:52:43.128Z,26.30
2023-03-21T07:55:11.083Z,26.30
2023-03-21T07:57:41.010Z,26.31
2023-03-21T08:00:10.963Z,26.33
2023-03-21T08:02:43.272Z,26.36
2023-03-21T08:05:12.033Z,26.40
2023-03-21T08:07:40.081Z,26.42
2023-03-21T08:10:10.776Z,26.44
2023-03-21T08:12:40.078Z,26.44
2023-03-21T08:15:09.925Z,26.49
2023-03-21T08:17:39.858Z,26.51
2023-03-21T08:20:10.253Z,26.34
2023-03-21T08:22:38.289Z,26.55
2023-03-21T08:25:10.130Z,26.59
2023-03-21T08:27:38.110Z,26.60
2023-03-21T08:30:09.189Z,26.62
2023-03-21T08:32:38.706Z,26.64
2023-03-21T08:35:10.134Z,26.64
2023-03-21T08:37:38.266Z,26.66
2023-03-21T08:40:11.159Z,26.68
2023-03-21T08:42:39.534Z,26.69
2023-03-21T08:45:10.613Z,26.72
2023-03-21T08:47:38.863Z,26.73
2023-03-21T08:50:09.134Z,26.76
2023-03-21T08:52:37.205Z,26.76
2023-03-21T08:55:06.115Z,26.78
2023-03-21T08:57:34.372Z,26.79
2023-03-21T09:00:02.466Z,26.77
2023-03-21T09:02:31.809Z,26.83
2023-03-21T09:04:59.895Z,26.86
2023-03-21T09:07:27.931Z,26.85
2023-03-21T09:10:08.419Z,26.90
2023-03-21T09:12:44.206Z,26.93
2023-03-21T09:15:13.546Z,26.95
2023-03-21T09:17:43.975Z,26.93
2023-03-21T09:20:18.860Z,26.98
2023-03-21T09:22:47.659Z,26.95
2023-03-21T09:25:16.266Z,27.01
2023-03-21T09:27:45.881Z,26.93
2023-03-21T09:30:16.336Z,27.05
2023-03-21T09:32:49.581Z,27.06
2023-03-21T09:35:18.702Z,27.06
2023-03-21T09:37:47.320Z,27.05
2023-03-21T09:40:20.653Z,27.06
2023-03-21T09:42:59.954Z,27.08
2023-03-21T09:45:38.478Z,27.08
2023-03-21T09:48:22.496Z,27.08
2023-03-21T09:50:50.694Z,27.05
2023-03-21T09:53:23.720Z,26.91
2023-03-21T09:55:51.974Z,27.12
2023-03-21T09:58:27.231Z,27.13
2023-03-21T10:01:05.291Z,27.13
2023-03-21T10:03:36.372Z,27.14
2023-03-21T10:06:11.461Z,27.16
2023-03-21T10:08:42.083Z,27.16
2023-03-21T10:11:16.174Z,27.17
2023-03-21T10:13:49.424Z,27.17
2023-03-21T10:16:21.060Z,27.18
2023-03-21T10:18:51.864Z,27.20
2023-03-21T10:21:51.270Z,27.20
2023-03-21T10:24:14.286Z,27.21
2023-03-21T10:26:44.056Z,27.21
2023-03-21T10:29:16.594Z,26.80
2023-03-21T10:31:46.466Z,27.26
2023-03-21T10:34:19.393Z,27.28
2023-03-21T10:36:48.034Z,27.18
2023-03-21T10:39:26.332Z,27.31
2023-03-21T10:41:55.196Z,27.30
2023-03-21T10:44:23.215Z,27.29
2023-03-21T10:46:53.522Z,27.35
2023-03-21T10:49:23.616Z,27.37
2023-03-21T10:51:54.802Z,27.35
2023-03-21T10:54:29.562Z,27.41
2023-03-21T10:56:59.827Z,27.42
2023-03-21T10:59:36.949Z,27.43
2023-03-21T11:02:06.884Z,27.40
2023-03-21T11:04:38.567Z,27.42
2023-03-21T11:07:08.208Z,27.44
2023-03-21T11:09:48.143Z,27.45
2023-03-21T11:12:17.874Z,27.44
2023-03-21T11:14:47.673Z,27.46
2023-03-21T11:17:25.387Z,27.47
2023-03-21T11:19:58.966Z,27.46
2023-03-21T11:22:30.517Z,27.47
2023-03-21T11:25:01.484Z,27.48
2023-03-21T11:27:30.536Z,27.48
2023-03-21T11:30:02.126Z,27.46
2023-03-21T11:32:34.857Z,27.49
2023-03-21T11:35:07.643Z,27.49
2023-03-21T11:37:40.688Z,27.47
2023-03-21T11:40:21.325Z,27.49
2023-03-21T11:42:51.986Z,27.38
2023-03-21T11:45:22.140Z,27.47
2023-03-21T11:47:51.716Z,27.48
2023-03-21T11:50:28.428Z,27.49
2023-03-21T11:53:26.640Z,27.49
2023-03-21T11:56:08.562Z,27.48
2023-03-21T11:58:51.994Z,27.47
2023-03-21T12:01:29.054Z,27.48
2023-03-21T12:04:05.252Z,27.48
2023-03-21T12:06:38.459Z,27.47
2023-03-21T12:09:17.615Z,27.47
2023-03-21T12:12:01.202Z,27.44
2023-03-21T12:14:37.057Z,27.44
2023-03-21T12:17:15.020Z,27.44
2023-03-21T12:20:07.699Z,27.44
2023-03-21T12:22:44.735Z,27.45
2023-03-21T12:25:18.770Z,27.44
2023-03-21T12:28:02.793Z,27.45
2023-03-21T12:30:42.844Z,27.44
2023-03-21T12:33:36.642Z,27.44
2023-03-21T12:36:17.740Z,27.45
2023-03-21T12:38:59.208Z,27.43
2023-03-21T12:41:33.639Z,27.34
2023-03-21T12:44:05.551Z,27.44
2023-03-21T12:46:37.583Z,27.44
2023-03-21T12:49:11.155Z,27.45
2023-03-21T12:51:43.071Z,27.44
2023-03-21T12:54:19.052Z,27.43
2023-03-21T12:56:53.255Z,27.44
2023-03-21T12:59:28.597Z,27.45
2023-03-21T13:02:00.925Z,27.46
2023-03-21T13:04:45.182Z,27.48
2023-03-21T13:07:20.107Z,27.46
2023-03-21T13:09:51.261Z,27.46
2023-03-21T13:12:45.087Z,27.48
2023-03-21T13:15:38.110Z,27.49
2023-03-21T13:18:14.356Z,27.48
2023-03-21T13:20:47.398Z,27.50
2023-03-21T13:23:15.556Z,27.40
2023-03-21T13:25:48.151Z,27.54
2023-03-21T13:28:22.272Z,27.58
2023-03-21T13:30:51.887Z,27.59
2023-03-21T13:33:25.919Z,27.62
2023-03-21T13:36:05.419Z,27.64
2023-03-21T13:38:35.145Z,27.63
2023-03-21T13:41:09.423Z,27.66
2023-03-21T13:43:44.561Z,27.65
2023-03-21T13:46:14.514Z,27.64
2023-03-21T13:48:57.790Z,27.65
2023-03-21T13:51:52.579Z,27.65
2023-03-21T13:54:25.472Z,27.64
2023-03-21T13:56:58.774Z,27.63
2023-03-21T13:59:46.107Z,27.62
2023-03-21T14:02:29.642Z,27.61
2023-03-21T14:05:06.371Z,27.58
2023-03-21T14:07:36.899Z,27.55
2023-03-21T14:10:09.853Z,27.47
2023-03-21T14:12:43.495Z,27.49
2023-03-21T14:15:19.229Z,27.47
2023-03-21T14:17:52.237Z,27.46
2023-03-21T14:20:23.480Z,27.25
2023-03-21T14:22:51.491Z,27.36
2023-03-21T14:25:21.850Z,27.30
2023-03-21T14:27:54.617Z,27.36
2023-03-21T14:30:27.046Z,27.31
2023-03-21T14:32:57.462Z,27.31
2023-03-21T14:35:31.288Z,27.29
2023-03-21T14:38:02.856Z,27.13
2023-03-21T14:40:31.018Z,26.15
2023-03-21T14:43:05.625Z,27.24
2023-03-21T14:45:37.463Z,27.22
2023-03-21T14:48:09.929Z,27.20
2023-03-21T14:50:44.000Z,27.21
2023-03-21T14:53:16.997Z,27.21
2023-03-21T14:55:47.688Z,27.15
2023-03-21T14:58:19.254Z,27.25
2023-03-21T15:00:50.789Z,27.27
2023-03-21T15:03:20.032Z,27.28
2023-03-21T15:05:48.054Z,27.30
2023-03-21T15:08:18.634Z,27.32
2023-03-21T15:11:06.911Z,27.34
2023-03-21T15:13:41.328Z,27.35
2023-03-21T15:16:10.997Z,27.35
2023-03-21T15:18:41.209Z,27.31
2023-03-21T15:21:15.057Z,27.37
2023-03-21T15:23:45.691Z,27.41
2023-03-21T15:26:16.898Z,27.30
2023-03-21T15:28:49.433Z,27.46
2023-03-21T15:31:19.844Z,27.46
2023-03-21T15:33:48.995Z,27.39
2023-03-21T15:36:22.990Z,27.52
2023-03-21T15:38:51.591Z,27.52
2023-03-21T15:41:29.138Z,27.53
2023-03-21T15:44:07.264Z,27.53
2023-03-21T15:46:42.820Z,27.49
2023-03-21T15:49:19.248Z,27.47
2023-03-21T15:51:50.512Z,27.46
2023-03-21T15:54:25.086Z,27.44
2023-03-21T15:56:56.013Z,27.40
2023-03-21T15:59:28.519Z,27.37
2023-03-21T16:01:56.610Z,27.34
2023-03-21T16:04:25.876Z,27.33
2023-03-21T16:06:58.615Z,27.16
2023-03-21T16:09:27.014Z,27.30
2023-03-21T16:11:57.163Z,27.29
2023-03-21T16:14:28.664Z,27.26
2023-03-21T16:16:57.359Z,27.23
2023-03-21T16:19:27.665Z,27.18
2023-03-21T16:21:55.575Z,27.14
2023-03-21T16:24:23.506Z,27.10
2023-03-21T16:26:53.446Z,27.08
2023-03-21T16:29:22.514Z,27.05
2023-03-21T16:31:51.962Z,26.89
2023-03-21T16:34:19.940Z,27.01
2023-03-21T16:36:48.011Z,26.99
2023-03-21T16:39:19.255Z,26.95
2023-03-21T16:41:47.968Z,26.93
2023-03-21T16:44:16.043Z,26.92
2023-03-21T16:46:44.434Z,26.88
2023-03-21T16:49:21.585Z,26.88
2023-03-21T16:51:49.635Z,26.84
2023-03-21T16:54:18.261Z,26.84
2023-03-21T16:56:49.925Z,26.82
2023-03-21T16:59:17.917Z,26.83
2023-03-21T17:01:48.118Z,26.82
2023-03-21T17:04:18.332Z,26.79
2023-03-21T17:06:47.965Z,26.81
2023-03-21T17:09:17.681Z,26.79
2023-03-21T17:11:45.716Z,26.76
2023-03-21T17:14:16.253Z,26.75
2023-03-21T17:16:44.888Z,26.73
2023-03-21T17:19:19.318Z,26.70
2023-03-21T17:21:47.601Z,26.70
2023-03-21T17:24:15.618Z,26.67
2023-03-21T17:26:43.519Z,26.66
2023-03-21T17:29:14.054Z,26.64
2023-03-21T17:31:42.555Z,26.64
2023-03-21T17:34:11.156Z,26.62
2023-03-21T17:36:42.857Z,26.38
2023-03-21T17:39:19.529Z,26.59
2023-03-21T17:41:47.640Z,26.56
2023-03-21T17:44:15.784Z,26.53
2023-03-21T17:46:43.920Z,26.51
2023-03-21T17:49:14.843Z,26.50
2023-03-21T17:51:46.834Z,26.48
2023-03-21T17:54:15.069Z,26.03
2023-03-21T17:56:43.120Z,26.46
2023-03-21T17:59:14.261Z,26.45
2023-03-21T18:01:42.915Z,26.43
2023-03-21T18:04:11.212Z,26.42
2023-03-21T18:06:39.704Z,26.05
2023-03-21T18:09:11.680Z,26.40
2023-03-21T18:11:41.265Z,26.38
2023-03-21T18:14:17.647Z,26.36
2023-03-21T18:16:47.262Z,26.35
2023-03-21T18:19:15.641Z,26.34
2023-03-21T18:21:45.853Z,26.32
2023-03-21T18:24:16.226Z,26.31
2023-03-21T18:26:46.137Z,26.27
2023-03-21T18:30:17.579Z,26.30
2023-03-21T18:32:08.465Z,26.28
2023-03-21T18:34:38.797Z,26.28
2023-03-21T18:37:08.044Z,26.26
2023-03-21T18:39:38.548Z,26.27
2023-03-21T18:42:07.213Z,26.25
2023-03-21T18:44:45.545Z,26.25
2023-03-21T18:47:13.744Z,26.16
2023-03-21T18:50:12.753Z,26.24
2023-03-21T18:52:30.064Z,26.23
2023-03-21T18:54:59.555Z,26.24
2023-03-21T18:57:37.399Z,26.22
2023-03-21T19:00:12.571Z,26.21
2023-03-21T19:02:45.617Z,26.20
2023-03-21T19:05:15.506Z,26.19
2023-03-21T19:07:43.449Z,26.19
2023-03-21T19:10:18.163Z,26.20
2023-03-21T19:12:47.765Z,26.17
2023-03-21T19:15:17.873Z,26.19
2023-03-21T19:20:34.147Z,26.20
2023-03-21T19:23:02.304Z,26.23
2023-03-21T19:25:32.091Z,26.24
2023-03-21T19:28:00.105Z,26.25
2023-03-21T19:30:28.017Z,26.16
2023-03-21T19:32:56.340Z,26.27
2023-03-21T19:35:25.190Z,26.27
2023-03-21T19:37:53.232Z,26.26
2023-03-21T19:40:21.514Z,26.29
2023-03-21T19:42:50.828Z,26.29
2023-03-21T19:45:19.066Z,26.28
2023-03-21T19:47:47.227Z,26.28
2023-03-21T19:53:03.697Z,26.28
2023-03-21T19:55:34.283Z,26.08
2023-03-21T19:58:03.793Z,26.30
2023-03-21T20:00:31.951Z,26.30
2023-03-21T20:03:00.204Z,26.11
2023-03-21T20:05:28.564Z,26.29
2023-03-21T20:07:57.411Z,26.29
2023-03-21T20:10:27.548Z,26.30
2023-03-21T20:12:55.737Z,26.31
2023-03-21T20:15:28.430Z,26.30
2023-03-21T20:17:57.886Z,26.31
2023-03-21T20:20:28.557Z,26.31
2023-03-21T20:23:06.692Z,26.31
2023-03-21T20:25:35.585Z,26.30
2023-03-21T20:28:15.849Z,26.13
2023-03-21T20:30:51.458Z,26.32
2023-03-21T20:33:19.717Z,26.32
2023-03-21T20:38:37.689Z,26.33
2023-03-21T20:41:07.588Z,26.33
2023-03-21T20:44:28.238Z,26.33
2023-03-21T20:46:25.545Z,26.33
2023-03-21T20:48:53.664Z,26.33
2023-03-21T20:54:11.206Z,26.31
2023-03-21T20:56:39.238Z,26.32
2023-03-21T20:59:17.699Z,26.33
2023-03-21T21:01:53.200Z,26.33
2023-03-21T21:04:22.367Z,26.32
2023-03-21T21:06:51.384Z,26.31
2023-03-21T21:09:19.346Z,26.34
2023-03-21T21:14:37.365Z,26.33
2023-03-21T21:17:24.627Z,26.34
2023-03-21T21:19:55.623Z,26.33
2023-03-21T21:22:23.647Z,26.33
2023-03-21T21:24:51.900Z,26.35
2023-03-21T21:27:19.990Z,26.34
2023-03-21T21:29:50.013Z,26.36
2023-03-21T21:32:21.449Z,26.35
2023-03-21T21:34:49.584Z,26.37
2023-03-21T21:37:17.518Z,26.36
2023-03-21T21:39:45.703Z,26.35
2023-03-21T21:42:16.331Z,26.34
2023-03-21T21:44:46.732Z,26.32
2023-03-21T21:47:15.495Z,26.32
2023-03-21T21:49:44.820Z,26.32
2023-03-21T21:52:13.774Z,26.31
2023-03-21T21:54:45.721Z,26.29
2023-03-21T21:57:14.686Z,26.32
2023-03-21T21:59:42.896Z,26.33
2023-03-21T22:02:13.897Z,26.31
2023-03-21T22:04:42.117Z,26.31
2023-03-21T22:07:14.683Z,26.26
2023-03-21T22:09:44.455Z,26.29
2023-03-21T22:12:12.485Z,26.28
2023-03-21T22:14:40.738Z,26.18
2023-03-21T22:17:08.970Z,26.27
2023-03-21T22:19:39.149Z,26.25
2023-03-21T22:22:08.138Z,26.24
2023-03-21T22:24:37.526Z,26.27
2023-03-21T22:27:05.986Z,26.25
2023-03-21T22:29:33.905Z,26.27
2023-03-21T22:32:01.929Z,26.26
2023-03-21T22:34:30.025Z,26.08
2023-03-21T22:36:59.627Z,26.22
2023-03-21T22:39:28.672Z,26.20
2023-03-21T22:42:00.869Z,26.21
2023-03-21T22:44:34.423Z,26.18
2023-03-21T22:47:03.234Z,26.08
2023-03-21T22:49:31.786Z,26.18
2023-03-21T22:52:00.251Z,26.17
2023-03-21T22:54:28.721Z,26.17
2023-03-21T22:56:58.226Z,26.17
2023-03-21T22:59:26.451Z,26.15
2023-03-21T23:01:54.892Z,26.16
2023-03-21T23:04:23.018Z,25.95
2023-03-21T23:06:51.342Z,25.99
2023-03-21T23:09:19.407Z,26.12
2023-03-21T23:11:49.566Z,25.92
2023-03-21T23:14:20.185Z,26.11
2023-03-21T23:16:49.643Z,25.98
2023-03-21T23:19:19.946Z,26.09
2023-03-21T23:21:49.082Z,26.09
2023-03-21T23:24:17.284Z,26.07
2023-03-21T23:26:45.361Z,26.08
2023-03-21T23:29:13.943Z,26.05
2023-03-21T23:31:43.446Z,25.96
2023-03-21T23:34:12.134Z,26.07
2023-03-21T23:36:40.937Z,26.07
2023-03-21T23:39:09.215Z,26.07
2023-03-21T23:41:37.224Z,26.07
2023-03-21T23:44:06.000Z,26.06
2023-03-21T23:46:34.124Z,25.95
2023-03-21T23:49:03.803Z,26.04
2023-03-21T23:51:31.764Z,26.05
2023-03-21T23:53:59.756Z,26.04
2023-03-21T23:56:28.687Z,26.04
2023-03-21T23:58:58.917Z,26.05
